Time;durP1;ratioP1;P1;durP2;ratioP2;P2;SDS_P1;SDS_P2;PMS_P1;PMS_P2;Temp;Humidity;BMP_temperature;BMP_pressure;BME280_temperature;BME280_humidity;BME280_pressure;Samples;Min_cycle;Max_cycle;Signal;HPM_P1;HPM_P2
2023/08/06 00:04:34;;;;;;;1.85;0.80;;;;;;;20.70;50.45;100227.53;16121078;19;130453;-67
2023/08/06 00:09:57;;;;;;;2.05;0.80;;;;;;;20.70;50.33;100226.69;16124794;19;131045;-67
2023/08/06 00:15:19;;;;;;;2.55;0.60;;;;;;;20.70;50.47;100221.13;16122909;19;131402;-67
2023/08/06 00:20:41;;;;;;;2.90;0.70;;;;;;;20.68;50.84;100212.22;16119201;19;133116;-68
2023/08/06 00:26:03;;;;;;;1.58;0.50;;;;;;;20.68;50.81;100209.44;16119571;19;130862;-67
2023/08/06 00:31:25;;;;;;;2.08;0.60;;;;;;;20.68;50.74;100201.09;16123443;19;130395;-67
2023/08/06 00:36:47;;;;;;;1.40;0.80;;;;;;;20.66;50.40;100200.56;16128007;19;130620;-67
2023/08/06 00:42:11;;;;;;;3.47;0.60;;;;;;;20.66;50.47;100195.00;16124351;19;130272;-67
2023/08/06 00:47:33;;;;;;;2.33;0.60;;;;;;;20.65;50.57;100193.34;16122800;19;129381;-67
2023/08/06 00:52:56;;;;;;;1.33;0.65;;;;;;;20.65;50.65;100198.91;16124026;19;131878;-68
2023/08/06 00:58:18;;;;;;;1.58;0.60;;;;;;;20.64;50.43;100194.44;16127198;19;131024;-68
2023/08/06 01:03:40;;;;;;;1.50;0.70;;;;;;;20.65;50.55;100187.78;16129313;19;129868;-68
2023/08/06 01:09:17;;;;;;;2.38;0.55;;;;;;;20.65;50.44;100196.94;16121946;19;129544;-67
2023/08/06 01:14:47;;;;;;;0.80;0.60;;;;;;;20.63;50.42;100192.78;16127648;19;129757;-69
2023/08/06 01:20:10;;;;;;;0.98;0.40;;;;;;;20.62;50.54;100188.34;16137364;19;129588;-68
2023/08/06 01:26:19;;;;;;;3.10;0.70;;;;;;;20.62;50.40;100185.56;16135226;19;129338;-68
2023/08/06 01:31:44;;;;;;;2.60;0.65;;;;;;;20.60;50.25;100192.22;16125965;19;130974;-68
2023/08/06 01:37:07;;;;;;;0.80;0.43;;;;;;;20.59;50.40;100185.00;16133488;19;129484;-67
2023/08/06 01:42:29;;;;;;;1.20;0.57;;;;;;;20.58;50.66;100188.88;16137048;19;130368;-68
2023/08/06 01:47:51;;;;;;;1.13;0.47;;;;;;;20.58;50.33;100183.31;16122202;19;130462;-68
2023/08/06 01:53:13;;;;;;;1.83;0.65;;;;;;;20.58;50.23;100194.44;16128159;19;130345;-68
2023/08/06 01:58:35;;;;;;;1.95;0.60;;;;;;;20.57;50.54;100187.22;16127515;19;130292;-68
2023/08/06 02:03:57;;;;;;;1.45;0.50;;;;;;;20.56;50.54;100191.09;16119055;19;130030;-68
2023/08/06 02:09:19;;;;;;;1.15;0.40;;;;;;;20.56;50.64;100187.50;16124649;19;129632;-68
2023/08/06 02:14:41;;;;;;;1.02;0.45;;;;;;;20.55;50.47;100183.91;16120331;19;129568;-68
2023/08/06 02:20:04;;;;;;;0.90;0.50;;;;;;;20.55;50.56;100189.47;16116462;19;130379;-68
2023/08/06 02:25:26;;;;;;;1.08;0.52;;;;;;;20.55;50.69;100188.59;16120283;19;129709;-68
2023/08/06 02:30:51;;;;;;;2.08;0.68;;;;;;;20.54;50.45;100196.13;16111694;19;130431;-68
2023/08/06 02:36:13;;;;;;;1.13;0.47;;;;;;;20.53;50.46;100191.69;16117561;19;130561;-68
2023/08/06 02:41:35;;;;;;;2.60;0.40;;;;;;;20.54;50.24;100189.72;16122841;19;130834;-68
2023/08/06 02:46:57;;;;;;;0.52;0.30;;;;;;;20.53;50.46;100190.81;16122083;19;131802;-68
2023/08/06 02:52:19;;;;;;;0.77;0.40;;;;;;;20.53;50.49;100191.69;16122722;19;129923;-68
2023/08/06 02:57:41;;;;;;;2.17;0.40;;;;;;;20.51;50.43;100193.03;16122553;19;130997;-68
2023/08/06 03:03:03;;;;;;;0.57;0.32;;;;;;;20.52;50.23;100198.34;16114827;19;130751;-67
2023/08/06 03:08:25;;;;;;;0.82;0.35;;;;;;;20.51;50.67;100193.03;16123892;19;130475;-68
2023/08/06 03:13:48;;;;;;;1.92;0.55;;;;;;;20.50;50.69;100186.66;16128513;19;129577;-68
2023/08/06 03:19:10;;;;;;;0.73;0.43;;;;;;;20.51;50.64;100191.13;16127321;19;129947;-68
2023/08/06 03:24:31;;;;;;;0.40;0.40;;;;;;;20.50;50.15;100195.00;16131975;19;129470;-68
2023/08/06 03:29:53;;;;;;;2.22;0.50;;;;;;;20.51;50.39;100204.16;16123254;19;130753;-68
2023/08/06 03:35:15;;;;;;;0.68;0.47;;;;;;;20.50;50.25;100206.13;16124736;19;131001;-68
2023/08/06 03:40:37;;;;;;;0.82;0.52;;;;;;;20.49;50.15;100209.19;16128380;19;129402;-68
2023/08/06 03:45:59;;;;;;;2.00;0.60;;;;;;;20.48;50.58;100216.66;16131348;19;130178;-68
2023/08/06 03:51:21;;;;;;;1.35;0.40;;;;;;;20.48;50.24;100211.09;16127300;19;130644;-68
2023/08/06 03:56:43;;;;;;;0.50;0.25;;;;;;;20.48;50.05;100219.44;16126874;19;129375;-68
2023/08/06 04:02:05;;;;;;;0.55;0.47;;;;;;;20.48;50.56;100227.78;16118984;19;130527;-68
2023/08/06 04:07:27;;;;;;;0.50;0.30;;;;;;;20.46;50.39;100243.88;16121992;19;130026;-68
2023/08/06 04:12:49;;;;;;;0.80;0.47;;;;;;;20.47;50.25;100253.06;16123614;19;130946;-68
2023/08/06 04:18:11;;;;;;;0.80;0.30;;;;;;;20.45;50.43;100258.88;16124686;19;130786;-68
2023/08/06 04:23:33;;;;;;;0.75;0.25;;;;;;;20.45;49.94;100273.63;16121070;19;130467;-68
2023/08/06 04:28:55;;;;;;;0.63;0.15;;;;;;;20.45;50.00;100281.13;16119541;19;130344;-68
2023/08/06 04:34:17;;;;;;;0.68;0.40;;;;;;;20.43;50.21;100292.50;16124762;19;130696;-68
2023/08/06 04:39:39;;;;;;;0.40;0.20;;;;;;;20.43;50.29;100313.91;16124450;19;129921;-68
2023/08/06 04:45:02;;;;;;;1.00;0.43;;;;;;;20.43;50.14;100325.03;16121736;19;129611;-68
2023/08/06 04:50:24;;;;;;;0.60;0.57;;;;;;;20.42;49.82;100335.28;16121519;19;129763;-68
2023/08/06 04:55:47;;;;;;;1.27;0.73;;;;;;;20.42;49.95;100351.16;16123958;19;130166;-68
2023/08/06 05:01:09;;;;;;;0.55;0.52;;;;;;;20.41;50.16;100346.69;16123419;19;130880;-68
2023/08/06 05:06:31;;;;;;;1.27;1.00;;;;;;;20.40;50.19;100356.13;16117475;19;130054;-68
2023/08/06 05:11:53;;;;;;;1.00;0.70;;;;;;;20.41;50.09;100380.03;16118320;19;130300;-68
2023/08/06 05:17:15;;;;;;;2.75;0.60;;;;;;;20.39;50.02;100396.13;16113267;19;131713;-68
2023/08/06 05:22:37;;;;;;;0.98;0.60;;;;;;;20.37;49.59;100421.38;16122876;19;131074;-68
2023/08/06 05:28:01;;;;;;;2.58;0.70;;;;;;;20.35;49.80;100429.19;16120185;19;129650;-68
2023/08/06 05:33:23;;;;;;;0.93;0.60;;;;;;;20.33;49.44;100436.09;16116375;19;130176;-68
2023/08/06 05:38:45;;;;;;;0.93;0.68;;;;;;;20.32;49.09;100451.94;16118481;19;130266;-68
2023/08/06 05:44:07;;;;;;;2.47;0.80;;;;;;;20.31;49.56;100463.31;16117596;19;130574;-67
2023/08/06 05:49:29;;;;;;;1.60;1.00;;;;;;;20.29;49.24;100469.97;16113468;19;130209;-67
2023/08/06 05:54:51;;;;;;;1.70;0.90;;;;;;;20.29;48.95;100489.44;16121311;19;129799;-68
2023/08/06 06:00:13;;;;;;;1.40;1.20;;;;;;;20.28;49.39;100504.41;16114605;19;129547;-67
2023/08/06 06:05:38;;;;;;;2.33;1.20;;;;;;;20.28;48.91;100511.91;16118264;19;129824;-67
2023/08/06 06:11:00;;;;;;;1.63;1.02;;;;;;;20.25;49.28;100513.28;16121906;19;129269;-68
2023/08/06 06:16:22;;;;;;;1.42;0.90;;;;;;;20.26;48.85;100528.84;16120322;19;129568;-68
2023/08/06 06:21:44;;;;;;;1.88;1.20;;;;;;;20.27;49.01;100549.97;16119693;19;130714;-68
2023/08/06 06:27:06;;;;;;;2.13;1.08;;;;;;;20.26;48.82;100556.63;16116519;19;130093;-68
2023/08/06 06:32:29;;;;;;;2.03;1.10;;;;;;;20.25;49.33;100568.84;16114377;19;130020;-69
2023/08/06 06:37:51;;;;;;;3.15;1.40;;;;;;;20.24;48.90;100575.50;16111789;19;129803;-68
2023/08/06 06:43:13;;;;;;;6.15;1.55;;;;;;;20.23;48.96;100589.66;16115374;19;129755;-69
2023/08/06 06:48:35;;;;;;;2.92;1.30;;;;;;;20.22;48.90;100597.13;16113000;19;129723;-71
2023/08/06 06:53:57;;;;;;;2.67;1.10;;;;;;;20.22;48.89;100599.09;16111416;19;131176;-73
2023/08/06 06:59:19;;;;;;;2.42;1.25;;;;;;;20.22;48.81;100613.81;16121033;19;129676;-71
2023/08/06 07:04:41;;;;;;;2.97;1.48;;;;;;;20.22;48.75;100618.53;16111610;19;133663;-70
2023/08/06 07:10:04;;;;;;;3.50;1.13;;;;;;;20.20;49.03;100632.66;16114033;19;129368;-69
2023/08/06 07:15:26;;;;;;;1.70;1.05;;;;;;;20.20;48.84;100643.78;16111195;19;129608;-69
2023/08/06 07:20:53;;;;;;;2.95;1.30;;;;;;;20.21;49.16;100647.41;16113697;19;129553;-69
2023/08/06 07:26:15;;;;;;;2.95;1.40;;;;;;;20.20;48.97;100654.88;16118457;19;130427;-68
2023/08/06 07:31:37;;;;;;;3.00;1.27;;;;;;;20.19;48.98;100661.53;16114033;19;130285;-68
2023/08/06 07:37:00;;;;;;;3.55;1.30;;;;;;;20.21;49.07;100669.63;16110215;19;129603;-70
2023/08/06 07:42:22;;;;;;;4.40;1.25;;;;;;;20.20;48.85;100666.00;16109564;19;132499;-72
2023/08/06 07:47:44;;;;;;;4.63;0.95;;;;;;;20.21;49.23;100670.47;16110139;19;129561;-71
2023/08/06 07:53:07;;;;;;;2.65;1.10;;;;;;;20.22;49.00;100668.53;16116044;19;129412;-70
2023/08/06 07:58:29;;;;;;;4.32;1.58;;;;;;;20.22;49.17;100683.25;16125754;19;131143;-69
2023/08/06 08:03:51;;;;;;;4.20;1.05;;;;;;;20.23;48.83;100681.31;16125363;19;130115;-70
2023/08/06 08:09:14;;;;;;;6.28;1.40;;;;;;;20.23;48.91;100682.16;16125234;19;131353;-70
2023/08/06 08:14:36;;;;;;;4.43;1.52;;;;;;;20.23;48.86;100682.16;16128478;19;129561;-70
2023/08/06 08:19:58;;;;;;;3.40;1.02;;;;;;;20.24;49.26;100691.34;16120108;19;130386;-70
2023/08/06 08:25:20;;;;;;;4.38;1.27;;;;;;;20.23;49.27;100690.47;16118694;19;129436;-69
2023/08/06 08:30:42;;;;;;;4.07;1.40;;;;;;;20.25;49.11;100696.63;16119112;19;129573;-69
2023/08/06 08:36:04;;;;;;;3.20;1.10;;;;;;;20.24;48.90;100692.16;16122252;19;129696;-69
2023/08/06 08:41:31;;;;;;;3.05;1.20;;;;;;;20.26;49.06;100691.88;16124031;19;131462;-71
2023/08/06 08:46:53;;;;;;;2.92;1.20;;;;;;;20.23;49.29;100701.59;16125275;19;131773;-67
2023/08/06 08:52:16;;;;;;;4.13;1.13;;;;;;;20.26;49.29;100705.78;16120685;19;130136;-67
2023/08/06 08:57:38;;;;;;;5.03;1.35;;;;;;;20.25;49.25;100704.94;16121494;19;131191;-68
2023/08/06 09:03:01;;;;;;;3.47;1.30;;;;;;;20.24;48.97;100708.81;16119972;19;130261;-67
2023/08/06 09:08:31;;;;;;;3.97;1.08;;;;;;;20.26;49.33;100714.09;16121622;19;130651;-67
2023/08/06 09:13:54;;;;;;;3.38;1.10;;;;;;;20.26;49.19;100711.31;16121940;19;130715;-67
2023/08/06 09:19:17;;;;;;;6.40;1.27;;;;;;;20.25;48.97;100710.50;16119077;19;130098;-65
2023/08/06 09:24:41;;;;;;;5.35;1.40;;;;;;;20.29;49.46;100720.00;16119864;19;130849;-62
2023/08/06 09:30:04;;;;;;;9.25;1.50;;;;;;;20.35;49.36;100712.56;16120973;19;129199;-70
2023/08/06 09:35:31;;;;;;;4.93;1.48;;;;;;;20.42;49.37;100723.44;16124171;19;130353;-65
2023/08/06 09:40:52;;;;;;;7.90;1.60;;;;;;;20.44;49.57;100727.63;16117673;19;130499;-59
2023/08/06 09:46:16;;;;;;;6.40;1.63;;;;;;;20.46;49.20;100721.81;16115009;19;129142;-64
2023/08/06 09:51:39;;;;;;;5.97;1.15;;;;;;;20.46;49.64;100727.34;16119272;19;130303;-66
2023/08/06 09:57:02;;;;;;;9.40;1.50;;;;;;;20.45;49.77;100734.88;16117006;19;130481;-67
2023/08/06 10:02:26;;;;;;;8.07;1.75;;;;;;;20.47;49.64;100745.72;16118387;19;129461;-66
2023/08/06 10:07:50;;;;;;;4.30;1.40;;;;;;;20.47;49.24;100744.88;16121924;19;129553;-66
2023/08/06 10:13:13;;;;;;;2.50;1.20;;;;;;;20.48;49.44;100755.72;16118907;19;131637;-66
2023/08/06 10:18:39;;;;;;;5.15;1.40;;;;;;;20.49;49.51;100774.06;16117547;19;130146;-66
2023/08/06 10:24:03;;;;;;;5.07;1.30;;;;;;;20.49;49.79;100779.63;16118713;19;129709;-66
2023/08/06 10:29:38;;;;;;;5.82;1.33;;;;;;;20.50;49.69;100795.22;16119498;19;129466;-66
2023/08/06 10:35:01;;;;;;;7.87;1.30;;;;;;;20.48;49.30;100808.53;16118591;19;129908;-66
2023/08/06 10:40:24;;;;;;;5.03;1.23;;;;;;;20.45;49.33;100809.03;16119621;19;130146;-66
2023/08/06 10:45:51;;;;;;;6.80;1.45;;;;;;;20.44;49.62;100815.69;16117738;19;130350;-66
2023/08/06 10:51:14;;;;;;;18.10;1.98;;;;;;;20.43;49.34;100819.59;16114201;19;130863;-67
2023/08/06 10:56:42;;;;;;;30.58;1.85;;;;;;;20.48;49.97;100830.75;16119019;19;130958;-67
2023/08/06 11:02:04;;;;;;;12.38;1.77;;;;;;;20.52;49.92;100844.97;16115936;19;133799;-66
2023/08/06 11:07:29;;;;;;;10.48;1.33;;;;;;;20.56;49.97;100846.94;16111808;19;129729;-67
2023/08/06 11:12:51;;;;;;;14.68;1.95;;;;;;;20.55;49.99;100850.84;16116554;19;129788;-67
2023/08/06 11:18:14;;;;;;;9.75;1.20;;;;;;;20.56;49.90;100844.16;16116457;19;129510;-67
2023/08/06 11:23:36;;;;;;;9.70;1.15;;;;;;;20.56;50.01;100852.50;16112044;19;129646;-68
2023/08/06 11:28:58;;;;;;;7.45;0.98;;;;;;;20.56;50.14;100866.41;16115082;19;130187;-67
2023/08/06 11:34:21;;;;;;;16.75;1.75;;;;;;;20.59;49.71;100865.06;16129389;19;130723;-67
2023/08/06 11:39:50;;;;;;;5.95;1.30;;;;;;;20.63;49.82;100866.19;16139321;19;130342;-68
2023/08/06 11:45:12;;;;;;;6.45;1.25;;;;;;;20.61;49.69;100865.66;16135477;19;129734;-63
2023/08/06 11:50:41;;;;;;;7.95;1.02;;;;;;;20.67;49.63;100874.88;16132761;19;130979;-65
2023/08/06 11:56:03;;;;;;;8.38;0.90;;;;;;;20.68;49.70;100866.28;16137745;19;130825;-61
2023/08/06 12:01:25;;;;;;;11.05;1.58;;;;;;;20.70;49.99;100863.22;16137154;19;131120;-63
2023/08/06 12:06:48;;;;;;;4.07;0.77;;;;;;;20.72;49.86;100866.56;16131517;19;129376;-63
2023/08/06 12:12:10;;;;;;;5.28;1.05;;;;;;;20.72;49.64;100861.88;16130542;19;130089;-63
2023/08/06 12:17:32;;;;;;;6.45;0.85;;;;;;;20.73;49.83;100873.81;16126791;19;129813;-62
2023/08/06 12:22:54;;;;;;;4.03;1.05;;;;;;;20.73;49.77;100874.69;16126280;19;129465;-64
2023/08/06 12:28:16;;;;;;;10.57;1.15;;;;;;;20.72;49.58;100873.00;16125769;19;130250;-64
2023/08/06 12:33:38;;;;;;;6.53;1.08;;;;;;;20.72;50.14;100881.34;16129308;19;129548;-66
2023/08/06 12:39:00;;;;;;;6.95;1.10;;;;;;;20.71;50.03;100881.56;16120689;19;129832;-63
2023/08/06 12:44:23;;;;;;;4.57;0.80;;;;;;;20.69;49.92;100890.19;16125082;19;130218;-64
2023/08/06 12:49:45;;;;;;;7.30;0.80;;;;;;;20.69;49.88;100895.75;16123887;19;130863;-64
2023/08/06 12:55:08;;;;;;;11.00;0.95;;;;;;;20.69;50.18;100894.91;16121416;19;130111;-64
2023/08/06 13:00:30;;;;;;;13.50;1.17;;;;;;;20.69;50.39;100897.69;16117911;19;129539;-63
2023/08/06 13:05:52;;;;;;;10.07;1.00;;;;;;;20.67;50.34;100902.69;16115630;19;131080;-64
2023/08/06 13:11:14;;;;;;;17.35;1.25;;;;;;;20.68;50.36;100926.56;16117654;19;130317;-64
2023/08/06 13:16:37;;;;;;;14.82;1.40;;;;;;;20.67;50.61;100924.91;16114689;19;129697;-63
2023/08/06 13:22:03;;;;;;;24.27;1.65;;;;;;;20.67;50.75;100930.47;16117139;19;130110;-64
2023/08/06 13:27:26;;;;;;;7.32;1.33;;;;;;;20.69;50.71;100933.81;16117334;19;129622;-64
2023/08/06 13:32:48;;;;;;;14.23;1.20;;;;;;;20.70;50.71;100941.06;16117545;19;131303;-64
2023/08/06 13:38:10;;;;;;;10.70;1.10;;;;;;;20.71;50.91;100948.28;16116097;19;129638;-63
2023/08/06 13:43:32;;;;;;;11.95;1.42;;;;;;;20.72;51.11;100961.09;16119684;19;130783;-66
2023/08/06 13:48:54;;;;;;;14.48;1.48;;;;;;;20.72;51.53;100969.44;16114782;19;129615;-65
2023/08/06 13:54:16;;;;;;;12.43;1.30;;;;;;;20.71;51.47;100970.53;16117969;19;130111;-64
2023/08/06 13:59:38;;;;;;;10.20;1.30;;;;;;;20.70;51.32;100985.53;16115952;19;129524;-65
2023/08/06 14:05:00;;;;;;;9.57;1.25;;;;;;;20.68;51.43;100994.16;16114241;19;129698;-65
2023/08/06 14:10:22;;;;;;;7.45;1.17;;;;;;;20.65;50.90;101011.34;16112419;19;131611;-66
2023/08/06 14:15:46;;;;;;;10.35;1.10;;;;;;;20.64;51.11;101020.78;16111474;19;130310;-64
2023/08/06 14:21:09;;;;;;;9.07;1.40;;;;;;;20.59;50.82;101018.75;16112873;19;129558;-62
2023/08/06 14:26:31;;;;;;;14.48;1.20;;;;;;;20.55;50.67;101031.50;16109763;19;130874;-61
2023/08/06 14:31:53;;;;;;;14.73;1.20;;;;;;;20.53;50.86;101046.75;16112342;19;130328;-60
2023/08/06 14:37:15;;;;;;;17.25;1.45;;;;;;;20.51;50.53;101062.81;16111665;19;130299;-61
2023/08/06 14:42:37;;;;;;;10.65;1.08;;;;;;;20.49;50.46;101063.09;16108374;19;131262;-60
2023/08/06 14:47:59;;;;;;;14.40;1.25;;;;;;;20.49;50.52;101073.38;16110488;19;130161;-61
2023/08/06 14:53:24;;;;;;;9.25;1.10;;;;;;;20.48;50.81;101078.09;16110394;19;129731;-61
2023/08/06 14:58:46;;;;;;;4.90;0.80;;;;;;;20.48;50.54;101094.75;16111839;19;130265;-60
2023/08/06 15:04:08;;;;;;;9.65;0.93;;;;;;;20.47;50.63;101104.19;16120441;19;130832;-60
2023/08/06 15:09:30;;;;;;;6.00;1.10;;;;;;;20.47;51.01;101114.47;16123660;19;131097;-60
2023/08/06 15:15:00;;;;;;;6.15;0.90;;;;;;;20.46;50.78;101130.28;16130078;19;129969;-61
2023/08/06 15:20:23;;;;;;;7.03;1.00;;;;;;;20.45;50.89;101135.03;16127664;19;131466;-60
2023/08/06 15:25:45;;;;;;;8.95;1.17;;;;;;;20.45;50.71;101156.41;16126403;19;130197;-60
2023/08/06 15:31:08;;;;;;;7.45;0.90;;;;;;;20.45;50.85;101161.97;16127230;19;130029;-61
2023/08/06 15:36:31;;;;;;;8.20;1.20;;;;;;;20.45;50.54;101167.50;16121033;19;130510;-61
2023/08/06 15:41:53;;;;;;;4.05;1.10;;;;;;;20.43;50.63;101166.94;16122787;19;129678;-60
2023/08/06 15:47:15;;;;;;;3.80;0.82;;;;;;;20.42;50.87;101184.72;16121366;19;131968;-61
2023/08/06 15:52:37;;;;;;;4.95;0.90;;;;;;;20.39;50.96;101196.31;16123445;19;131048;-61
2023/08/06 15:57:59;;;;;;;5.53;1.17;;;;;;;20.39;50.76;101199.09;16127062;19;129890;-61
2023/08/06 16:03:21;;;;;;;7.15;0.80;;;;;;;20.36;50.43;101214.34;16125891;19;130171;-61
2023/08/06 16:08:43;;;;;;;6.20;0.85;;;;;;;20.32;50.70;101215.94;16121642;19;130150;-62
2023/08/06 16:14:05;;;;;;;6.20;1.27;;;;;;;20.31;50.57;101218.97;16123651;19;131184;-63
2023/08/06 16:19:27;;;;;;;4.32;1.20;;;;;;;20.29;50.21;101225.63;16122875;19;130436;-64
2023/08/06 16:24:49;;;;;;;8.38;1.35;;;;;;;20.26;49.71;101240.00;16123026;19;130072;-64
2023/08/06 16:30:12;;;;;;;8.98;2.60;;;;;;;20.22;49.70;101236.03;16126627;19;130784;-64
2023/08/06 16:35:35;;;;;;;9.20;2.05;;;;;;;20.21;49.72;101234.34;16123831;19;130183;-64
2023/08/06 16:40:57;;;;;;;8.13;2.78;;;;;;;20.21;49.42;101247.41;16120971;19;130369;-64
2023/08/06 16:46:19;;;;;;;4.65;1.42;;;;;;;20.21;49.60;101259.34;16114914;19;130494;-64
2023/08/06 16:51:41;;;;;;;6.60;2.22;;;;;;;20.20;49.46;101248.50;16117061;19;129633;-64
2023/08/06 16:57:03;;;;;;;8.68;2.22;;;;;;;20.20;49.63;101260.44;16119889;19;130839;-64
2023/08/06 17:02:25;;;;;;;3.38;1.67;;;;;;;20.21;49.58;101270.47;16116890;19;131179;-64
2023/08/06 17:07:49;;;;;;;5.88;1.88;;;;;;;20.22;49.40;101286.03;16121468;19;130441;-64
2023/08/06 17:13:11;;;;;;;5.40;1.73;;;;;;;20.21;48.99;101281.56;16122464;19;131120;-63
2023/08/06 17:18:42;;;;;;;6.07;2.17;;;;;;;20.19;49.36;101286.53;16117106;19;129931;-63
2023/08/06 17:24:04;;;;;;;8.25;2.40;;;;;;;20.19;49.38;101294.88;16116222;19;130467;-64
2023/08/06 17:29:26;;;;;;;9.68;2.47;;;;;;;20.18;49.03;101301.53;16118886;19;129625;-63
2023/08/06 17:34:49;;;;;;;5.90;2.03;;;;;;;20.18;49.26;101322.91;16116040;19;132394;-64
2023/08/06 17:40:11;;;;;;;5.30;2.45;;;;;;;20.18;49.11;101340.44;16115597;19;129891;-64
2023/08/06 17:45:33;;;;;;;8.43;2.42;;;;;;;20.17;49.08;101321.22;16111283;19;130090;-64
2023/08/06 17:50:55;;;;;;;6.10;2.83;;;;;;;20.16;49.13;101336.19;16112303;19;130971;-63
2023/08/06 17:56:18;;;;;;;11.07;5.53;;;;;;;20.16;49.24;101352.84;16115221;19;129989;-62
2023/08/06 18:01:40;;;;;;;17.75;12.75;;;;;;;20.21;50.24;101352.97;16116719;19;129675;-60
2023/08/06 18:07:02;;;;;;;23.73;16.08;;;;;;;20.23;50.78;101337.75;16114080;19;130576;-65
2023/08/06 18:12:24;;;;;;;17.45;14.05;;;;;;;20.29;51.07;101350.66;16112321;19;133417;-65
2023/08/06 18:17:46;;;;;;;17.00;13.07;;;;;;;20.33;51.00;101347.38;16102539;19;131176;-64
2023/08/06 18:23:09;;;;;;;21.45;11.70;;;;;;;20.35;50.77;101340.50;16103461;19;130040;-65
2023/08/06 18:28:31;;;;;;;13.20;8.77;;;;;;;20.37;50.55;101340.22;16102677;19;130219;-67
2023/08/06 18:33:53;;;;;;;12.45;9.02;;;;;;;20.36;51.19;101344.94;16103039;19;129962;-65
2023/08/06 18:39:15;;;;;;;10.82;7.80;;;;;;;20.38;51.04;101351.09;16109591;19;129729;-65
2023/08/06 18:44:37;;;;;;;12.02;8.02;;;;;;;20.40;51.02;101348.91;16115036;19;129853;-65
2023/08/06 18:50:00;;;;;;;12.07;6.55;;;;;;;20.40;51.09;101348.91;16112487;19;130443;-66
2023/08/06 18:55:22;;;;;;;14.43;5.82;;;;;;;20.38;50.82;101370.53;16120404;19;133408;-65
2023/08/06 19:00:45;;;;;;;12.85;5.57;;;;;;;20.38;50.90;101366.94;16121114;19;129580;-65
2023/08/06 19:06:07;;;;;;;10.38;5.03;;;;;;;20.34;50.59;101366.59;16117657;19;129875;-65
2023/08/06 19:11:29;;;;;;;9.02;4.05;;;;;;;20.34;50.44;101365.72;16117407;19;129202;-66
2023/08/06 19:16:51;;;;;;;22.45;4.45;;;;;;;20.32;50.45;101370.69;16111977;19;131680;-64
2023/08/06 19:22:14;;;;;;;7.47;3.58;;;;;;;20.31;50.39;101374.56;16113431;19;129907;-64
2023/08/06 19:27:36;;;;;;;13.10;3.72;;;;;;;20.31;50.36;101378.19;16116996;19;129988;-65
2023/08/06 19:32:58;;;;;;;14.75;3.15;;;;;;;20.33;50.25;101394.59;16110888;19;129676;-66
2023/08/06 19:38:24;;;;;;;10.75;2.53;;;;;;;20.32;50.43;101388.22;16111691;19;130057;-59
2023/08/06 19:43:46;;;;;;;10.52;2.63;;;;;;;20.32;50.75;101395.69;16108098;19;131279;-61
2023/08/06 19:49:08;;;;;;;17.55;2.60;;;;;;;20.31;50.71;101397.63;16080471;19;131183;-62
2023/08/06 19:54:31;;;;;;;11.32;2.55;;;;;;;20.32;50.90;101395.69;16115064;19;129988;-58
2023/08/06 19:59:53;;;;;;;12.88;3.17;;;;;;;20.31;50.79;101396.81;16120915;19;130419;-64
2023/08/06 20:05:16;;;;;;;12.05;2.28;;;;;;;20.29;50.80;101400.66;16123188;19;129607;-62
2023/08/06 20:10:38;;;;;;;13.15;2.42;;;;;;;20.31;50.45;101399.59;16123305;19;132740;-60
2023/08/06 20:16:01;;;;;;;10.10;2.38;;;;;;;20.27;50.83;101394.50;16118471;19;130427;-59
2023/08/06 20:21:23;;;;;;;10.65;1.92;;;;;;;20.27;50.35;101400.06;16120604;19;130662;-60
2023/08/06 20:26:45;;;;;;;12.15;2.28;;;;;;;20.27;50.77;101400.06;16122392;19;131636;-62
2023/08/06 20:32:07;;;;;;;9.45;2.03;;;;;;;20.26;50.34;101406.72;16119094;19;130374;-59
2023/08/06 20:37:29;;;;;;;10.10;2.05;;;;;;;20.23;50.71;101398.84;16114980;19;130726;-60
2023/08/06 20:42:51;;;;;;;9.48;1.77;;;;;;;20.23;50.38;101409.97;16116998;19;129523;-61
2023/08/06 20:48:13;;;;;;;13.48;2.25;;;;;;;20.23;50.48;101409.97;16117445;19;129400;-63
2023/08/06 20:53:35;;;;;;;13.52;2.13;;;;;;;20.23;50.47;101414.69;16105971;19;133662;-60
2023/08/06 20:58:57;;;;;;;13.02;2.45;;;;;;;20.21;50.58;101414.94;16112484;19;134486;-60
2023/08/06 21:04:20;;;;;;;8.48;2.20;;;;;;;20.21;50.35;101401.03;16119046;19;130233;-59
2023/08/06 21:09:42;;;;;;;8.48;1.40;;;;;;;20.21;50.28;101409.38;16119590;19;130662;-59
2023/08/06 21:15:05;;;;;;;7.13;1.63;;;;;;;20.21;50.28;101406.59;16118372;19;130424;-60
2023/08/06 21:20:27;;;;;;;7.97;1.48;;;;;;;20.21;50.35;101412.16;16113678;19;131616;-60
2023/08/06 21:25:59;;;;;;;5.97;1.27;;;;;;;20.22;50.37;101408.28;16115084;19;130111;-60
2023/08/06 21:31:21;;;;;;;10.07;1.95;;;;;;;20.19;50.22;101403.22;16118235;19;129856;-60
2023/08/06 21:36:43;;;;;;;7.93;1.75;;;;;;;20.19;50.72;101411.53;16123109;19;129604;-60
2023/08/06 21:42:05;;;;;;;6.88;1.40;;;;;;;20.19;50.65;101407.94;16127850;19;129835;-59
2023/08/06 21:47:27;;;;;;;8.38;1.83;;;;;;;20.18;50.45;101401.56;16117492;19;131866;-59
2023/08/06 21:52:49;;;;;;;8.77;1.58;;;;;;;20.18;50.41;101426.56;16117172;19;129802;-60
2023/08/06 21:58:11;;;;;;;8.02;1.65;;;;;;;20.18;50.82;101421.00;16111710;19;131131;-61
2023/08/06 22:03:34;;;;;;;9.45;1.50;;;;;;;20.18;50.39;101423.78;16117023;19;130358;-60
2023/08/06 22:08:56;;;;;;;11.10;2.38;;;;;;;20.17;50.81;101416.53;16117914;19;130323;-58
2023/08/06 22:14:18;;;;;;;7.28;1.73;;;;;;;20.16;50.60;101423.16;16148217;19;130239;-60
2023/08/06 22:19:40;;;;;;;6.00;1.75;;;;;;;20.17;50.84;101422.09;16146203;19;129523;-60
2023/08/06 22:25:06;;;;;;;6.10;1.52;;;;;;;20.17;50.84;101432.34;16143630;19;129744;-59
2023/08/06 22:30:28;;;;;;;6.00;1.15;;;;;;;20.17;50.89;101438.75;16152058;19;130642;-52
2023/08/06 22:35:52;;;;;;;7.05;1.40;;;;;;;20.16;50.45;101437.06;16161501;19;129362;-60
2023/08/06 22:41:14;;;;;;;7.90;1.55;;;;;;;20.16;50.84;101442.63;16166201;19;130449;-59
2023/08/06 22:46:36;;;;;;;8.30;1.30;;;;;;;20.13;50.41;101446.69;16126392;19;131331;-57
2023/08/06 22:51:58;;;;;;;5.65;1.20;;;;;;;20.14;50.63;101434.50;16123215;19;131754;-50
2023/08/06 22:57:20;;;;;;;7.72;1.75;;;;;;;20.14;50.42;101431.72;16119251;19;130334;-57
2023/08/06 23:02:42;;;;;;;4.85;1.27;;;;;;;20.13;50.31;101431.97;16143579;19;130863;-57
2023/08/06 23:08:19;;;;;;;5.63;1.75;;;;;;;20.13;50.56;101443.09;16140451;19;129513;-59
2023/08/06 23:13:41;;;;;;;4.75;1.15;;;;;;;20.11;50.78;101435.03;16141603;19;128980;-56
2023/08/06 23:19:03;;;;;;;5.15;0.90;;;;;;;20.11;50.54;101445.25;16138186;19;130472;-57
2023/08/06 23:24:27;;;;;;;6.82;1.10;;;;;;;20.09;50.29;101436.31;16146663;19;130920;-55
2023/08/06 23:29:49;;;;;;;2.50;1.10;;;;;;;20.09;50.74;101441.88;16154834;19;130986;-57
2023/08/06 23:35:12;;;;;;;5.30;1.25;;;;;;;20.08;50.63;101446.59;16159005;19;130113;-56
2023/08/06 23:40:34;;;;;;;2.22;1.10;;;;;;;20.08;50.51;101438.28;16153414;19;129091;-56
2023/08/06 23:45:57;;;;;;;2.88;1.10;;;;;;;20.07;50.49;101433.81;16156113;19;129615;-57
2023/08/06 23:51:19;;;;;;;2.97;1.20;;;;;;;20.07;50.41;101432.94;16153837;19;130198;-56
2023/08/06 23:56:41;;;;;;;5.07;1.00;;;;;;;20.05;50.31;101435.97;16151334;19;129514;-57
